Time;durP1;ratioP1;P1;durP2;ratioP2;P2;SDS_P1;SDS_P2;PMS_P1;PMS_P2;Temp;Humidity;BMP_temperature;BMP_pressure;BME280_temperature;BME280_humidity;BME280_pressure;Samples;Min_cycle;Max_cycle;Signal;HPM_P1;HPM_P2
2023/05/05 00:00:36;;;;;;;20.48;15.50;;;;;;;15.23;44.57;100658.84;4898333;28;100803;-83
2023/05/05 00:03:02;;;;;;;16.80;14.98;;;;;;;15.24;44.62;100646.47;4900234;28;96935;-83
2023/05/05 00:05:27;;;;;;;20.67;14.98;;;;;;;15.31;44.12;100664.63;4912446;28;96998;-83
2023/05/05 00:07:53;;;;;;;20.30;15.07;;;;;;;15.27;45.23;100664.84;4920402;28;97709;-82
2023/05/05 00:10:18;;;;;;;19.42;16.48;;;;;;;15.24;45.35;100667.63;4906111;28;101729;-82
2023/05/05 00:12:44;;;;;;;17.48;15.68;;;;;;;15.15;45.31;100656.59;4899287;28;97508;-82
2023/05/05 00:15:09;;;;;;;21.58;15.40;;;;;;;15.22;45.27;100662.44;4893470;28;97630;-82
2023/05/05 00:17:35;;;;;;;16.75;14.43;;;;;;;15.21;45.86;100666.00;4897817;28;101503;-83
2023/05/05 00:20:00;;;;;;;17.08;15.27;;;;;;;15.23;45.75;100665.94;4914485;28;98761;-82
2023/05/05 00:22:26;;;;;;;18.35;14.65;;;;;;;15.19;46.09;100659.09;4904490;28;96871;-83
2023/05/05 00:24:51;;;;;;;16.60;14.98;;;;;;;15.17;46.06;100651.22;4916562;28;97126;-82
2023/05/05 00:27:17;;;;;;;16.10;14.48;;;;;;;15.10;46.23;100650.66;4915730;28;100078;-81
2023/05/05 00:29:42;;;;;;;20.20;15.10;;;;;;;15.11;46.16;100665.59;4926315;28;101428;-82
2023/05/05 00:32:08;;;;;;;17.13;15.05;;;;;;;15.13;46.72;100668.16;4915309;28;97068;-82
2023/05/05 00:34:33;;;;;;;19.08;15.63;;;;;;;15.00;46.91;100665.22;4907548;28;97001;-82
2023/05/05 00:36:59;;;;;;;19.77;14.60;;;;;;;14.99;46.90;100660.03;4938543;28;98598;-82
2023/05/05 00:39:24;;;;;;;18.75;15.65;;;;;;;15.10;46.76;100655.09;4917442;28;101350;-82
2023/05/05 00:41:51;;;;;;;15.88;14.25;;;;;;;15.04;46.81;100650.06;4905619;28;97169;-82
2023/05/05 00:44:17;;;;;;;19.60;16.08;;;;;;;14.94;47.02;100649.66;4933535;28;98173;-83
2023/05/05 00:46:42;;;;;;;17.13;15.48;;;;;;;14.83;46.71;100629.00;4950942;28;98576;-82
2023/05/05 00:49:08;;;;;;;18.63;16.67;;;;;;;14.89;46.63;100651.66;4946587;28;97902;-84
2023/05/05 00:51:34;;;;;;;20.15;16.05;;;;;;;14.95;46.69;100646.06;4919253;28;96785;-82
2023/05/05 00:54:00;;;;;;;20.88;16.75;;;;;;;14.96;46.52;100650.44;4940044;28;97242;-82
2023/05/05 00:56:26;;;;;;;19.67;16.58;;;;;;;14.89;46.08;100641.06;4921881;28;102016;-83
2023/05/05 00:58:51;;;;;;;19.65;17.42;;;;;;;14.99;46.04;100650.31;4929451;28;97852;-82
2023/05/05 01:01:17;;;;;;;20.95;15.65;;;;;;;14.93;46.17;100643.53;4909978;28;97351;-83
2023/05/05 01:03:43;;;;;;;20.05;16.75;;;;;;;14.94;45.75;100647.88;4926592;28;97628;-83
2023/05/05 01:06:27;;;;;;;21.65;16.88;;;;;;;14.83;45.69;100633.44;4916235;28;98559;-83
2023/05/05 01:09:00;;;;;;;22.35;17.48;;;;;;;14.84;46.35;100646.59;4908647;28;101642;-83
2023/05/05 01:11:38;;;;;;;19.77;17.35;;;;;;;14.81;46.23;100641.47;4913171;28;96805;-82
2023/05/05 01:14:16;;;;;;;19.45;16.58;;;;;;;14.86;45.98;100644.72;4896429;28;97381;-84
2023/05/05 01:16:56;;;;;;;21.25;17.98;;;;;;;14.88;45.79;100640.22;4883933;28;101707;-83
2023/05/05 01:19:52;;;;;;;18.08;15.68;;;;;;;14.87;45.60;100637.69;4898141;28;98554;-84
2023/05/05 01:22:22;;;;;;;23.08;17.65;;;;;;;14.86;45.61;100622.72;4891071;28;96977;-83
2023/05/05 01:25:18;;;;;;;19.83;16.70;;;;;;;14.85;45.47;100629.81;4880094;28;97494;-83
2023/05/05 01:28:04;;;;;;;21.92;17.77;;;;;;;14.79;45.76;100627.44;4913898;28;101915;-83
2023/05/05 01:30:54;;;;;;;20.48;16.90;;;;;;;14.82;45.29;100626.44;4923052;28;100448;-83
2023/05/05 01:33:24;;;;;;;18.83;16.50;;;;;;;14.81;44.62;100628.25;4921316;28;97234;-83
2023/05/05 01:35:52;;;;;;;19.63;17.52;;;;;;;14.80;44.88;100623.88;4901904;28;97132;-83
2023/05/05 01:38:21;;;;;;;23.02;18.08;;;;;;;14.79;44.99;100621.31;4893185;28;101616;-83
2023/05/05 01:40:58;;;;;;;19.30;16.98;;;;;;;14.76;45.03;100617.03;4906693;28;97366;-83
2023/05/05 01:43:26;;;;;;;22.90;17.58;;;;;;;14.56;45.24;100588.03;4879860;28;97819;-83
2023/05/05 01:45:52;;;;;;;24.38;17.27;;;;;;;14.76;45.28;100618.81;4900104;28;97398;-83
2023/05/05 01:48:22;;;;;;;20.33;17.55;;;;;;;14.75;45.16;100620.59;4899325;28;101291;-82
2023/05/05 01:50:49;;;;;;;19.02;16.92;;;;;;;14.70;44.97;100615.53;4881990;28;101287;-82
2023/05/05 01:53:17;;;;;;;19.17;16.98;;;;;;;14.63;45.13;100603.53;4908659;28;97384;-83
2023/05/05 01:55:43;;;;;;;21.00;17.65;;;;;;;14.63;45.06;100606.19;4880483;28;97450;-83
2023/05/05 01:58:09;;;;;;;19.90;17.45;;;;;;;14.64;45.37;100609.66;4902869;28;101251;-82
2023/05/05 02:00:34;;;;;;;19.88;17.58;;;;;;;14.67;45.48;100620.94;4909001;28;98299;-83
2023/05/05 02:03:03;;;;;;;21.27;17.40;;;;;;;14.65;45.72;100620.16;4898674;28;97176;-83
2023/05/05 02:05:29;;;;;;;22.08;16.73;;;;;;;14.51;45.87;100598.75;4893084;28;96999;-83
2023/05/05 02:07:57;;;;;;;23.33;17.50;;;;;;;14.61;46.08;100625.66;4916204;28;98229;-83
2023/05/05 02:10:23;;;;;;;21.00;17.13;;;;;;;14.57;45.34;100622.28;4889960;28;101318;-83
2023/05/05 02:12:49;;;;;;;20.27;16.40;;;;;;;14.55;46.07;100618.88;4890056;28;97080;-83
2023/05/05 02:15:15;;;;;;;20.77;17.63;;;;;;;14.44;45.58;100616.69;4886564;28;97033;-82
2023/05/05 02:17:42;;;;;;;19.48;16.50;;;;;;;14.31;46.06;100612.91;4892228;28;101247;-83
2023/05/05 02:20:10;;;;;;;18.95;16.88;;;;;;;14.33;46.19;100618.94;4894020;28;97643;-84
2023/05/05 02:22:35;;;;;;;23.27;15.88;;;;;;;14.41;46.07;100621.25;4902832;28;97299;-83
2023/05/05 02:25:02;;;;;;;19.83;17.23;;;;;;;14.42;46.12;100615.88;4884564;28;97198;-83
2023/05/05 02:27:29;;;;;;;21.65;17.10;;;;;;;14.36;46.11;100604.75;4896859;28;98221;-83
2023/05/05 02:30:03;;;;;;;18.67;16.13;;;;;;;14.36;46.23;100610.03;4894838;28;101078;-83
2023/05/05 02:32:36;;;;;;;20.02;16.80;;;;;;;14.29;46.02;100595.41;4894605;28;97442;-82
2023/05/05 02:35:23;;;;;;;19.35;17.30;;;;;;;14.22;46.57;100605.38;4898177;28;97120;-82
2023/05/05 02:37:58;;;;;;;20.38;17.20;;;;;;;14.16;46.29;100606.50;4896828;28;101649;-83
2023/05/05 02:40:27;;;;;;;19.35;16.98;;;;;;;14.14;46.65;100604.88;4897211;28;99111;-83
2023/05/05 02:42:56;;;;;;;19.13;16.15;;;;;;;13.96;46.57;100577.47;4897283;28;97358;-82
2023/05/05 02:45:27;;;;;;;21.85;17.48;;;;;;;14.06;46.30;100599.91;4887269;28;97438;-84
2023/05/05 02:47:52;;;;;;;20.40;17.33;;;;;;;14.09;46.93;100606.84;4901719;28;101858;-83
2023/05/05 02:50:19;;;;;;;21.60;16.50;;;;;;;13.93;46.83;100593.44;4888030;28;101716;-82
2023/05/05 02:53:03;;;;;;;17.58;15.80;;;;;;;13.92;46.98;100592.59;4894670;28;96993;-83
2023/05/05 02:55:37;;;;;;;19.88;17.58;;;;;;;14.04;46.70;100617.59;4896496;28;97351;-82
2023/05/05 02:58:10;;;;;;;21.92;16.75;;;;;;;13.98;47.00;100607.31;4878816;28;101429;-82
2023/05/05 03:00:49;;;;;;;19.95;17.75;;;;;;;14.02;47.12;100627.34;4886822;28;101542;-83
2023/05/05 03:03:25;;;;;;;19.05;17.05;;;;;;;14.05;47.15;100619.34;4894767;28;97422;-82
2023/05/05 03:06:10;;;;;;;25.25;17.85;;;;;;;14.00;47.52;100624.81;4899278;28;96972;-83
2023/05/05 03:08:42;;;;;;;19.77;17.15;;;;;;;13.98;47.90;100623.16;4911190;28;101549;-83
2023/05/05 03:11:18;;;;;;;19.52;16.00;;;;;;;13.96;47.26;100624.97;4912131;28;101149;-85
2023/05/05 03:13:46;;;;;;;19.30;17.13;;;;;;;13.91;47.09;100613.78;4895780;28;97118;-83
2023/05/05 03:16:16;;;;;;;19.30;16.58;;;;;;;13.81;47.47;100616.81;4895183;28;96985;-83
2023/05/05 03:18:43;;;;;;;21.88;17.42;;;;;;;13.90;47.33;100619.97;4909755;28;101667;-83
2023/05/05 03:21:08;;;;;;;19.35;16.88;;;;;;;13.92;47.86;100623.41;4912642;28;101129;-85
2023/05/05 03:23:37;;;;;;;19.33;17.38;;;;;;;13.91;47.68;100634.91;4911125;28;97209;-83
2023/05/05 03:26:07;;;;;;;19.80;17.58;;;;;;;13.94;47.95;100634.78;4897176;28;97623;-82
2023/05/05 03:28:37;;;;;;;20.20;16.75;;;;;;;13.79;47.97;100636.28;4896724;28;102156;-83
2023/05/05 03:31:11;;;;;;;19.95;17.83;;;;;;;13.79;47.91;100620.44;4922309;28;99087;-83
2023/05/05 03:33:38;;;;;;;18.73;16.73;;;;;;;13.83;48.09;100643.13;4917259;28;97197;-83
2023/05/05 03:36:04;;;;;;;20.80;17.20;;;;;;;13.80;48.20;100630.94;4928484;28;97093;-84
2023/05/05 03:38:30;;;;;;;18.50;16.60;;;;;;;13.87;48.23;100641.22;4892630;28;102215;-83
2023/05/05 03:40:56;;;;;;;18.88;16.90;;;;;;;13.78;48.17;100631.91;4905033;28;100917;-83
2023/05/05 03:43:24;;;;;;;19.88;17.65;;;;;;;13.78;48.23;100632.75;4915728;28;96952;-83
2023/05/05 03:45:50;;;;;;;20.80;16.48;;;;;;;13.81;48.50;100639.69;4895308;28;97261;-83
2023/05/05 03:48:16;;;;;;;19.38;16.67;;;;;;;13.76;48.34;100645.19;4917062;28;100912;-83
2023/05/05 03:50:44;;;;;;;18.15;16.25;;;;;;;13.67;48.95;100642.94;4896674;28;99826;-83
2023/05/05 03:53:11;;;;;;;20.08;15.60;;;;;;;13.69;49.14;100643.72;4903544;28;96971;-84
2023/05/05 03:55:37;;;;;;;17.15;15.10;;;;;;;13.65;48.96;100638.66;4928932;28;96978;-83
2023/05/05 03:58:03;;;;;;;25.50;17.50;;;;;;;13.66;49.15;100646.47;4918482;28;101433;-83
2023/05/05 04:00:28;;;;;;;22.70;17.42;;;;;;;13.70;48.95;100650.72;4896225;28;101307;-82
2023/05/05 04:02:54;;;;;;;20.17;18.08;;;;;;;13.68;48.82;100649.91;4904504;28;97000;-83
2023/05/05 04:05:22;;;;;;;19.40;16.63;;;;;;;13.62;49.19;100641.41;4910204;28;97680;-82
2023/05/05 04:07:48;;;;;;;22.67;17.13;;;;;;;13.68;49.31;100646.44;4888978;28;101382;-83
2023/05/05 04:10:14;;;;;;;20.73;17.17;;;;;;;13.64;49.35;100648.31;4892874;28;100790;-83
2023/05/05 04:12:40;;;;;;;18.08;16.05;;;;;;;13.54;49.69;100636.44;4895872;28;97310;-83
2023/05/05 04:15:06;;;;;;;17.52;15.80;;;;;;;13.36;49.91;100604.63;4878054;28;97001;-83
2023/05/05 04:17:32;;;;;;;22.33;18.17;;;;;;;13.62;49.79;100649.31;4879316;28;100989;-83
2023/05/05 04:19:57;;;;;;;20.48;16.90;;;;;;;13.54;49.04;100623.25;4899299;28;101288;-82
2023/05/05 04:22:23;;;;;;;26.10;18.15;;;;;;;13.66;49.60;100640.34;4898936;28;97565;-82
2023/05/05 04:24:49;;;;;;;18.55;16.40;;;;;;;13.57;49.58;100634.53;4871056;28;97392;-84
2023/05/05 04:27:15;;;;;;;24.50;18.70;;;;;;;13.32;49.98;100634.69;4898710;28;101125;-82
2023/05/05 04:29:41;;;;;;;24.58;17.90;;;;;;;13.44;49.82;100649.16;4897732;28;100928;-83
2023/05/05 04:32:07;;;;;;;17.33;15.57;;;;;;;13.41;49.87;100625.56;4880730;28;97733;-83
2023/05/05 04:34:32;;;;;;;23.25;16.27;;;;;;;13.56;49.80;100651.28;4894331;28;97476;-82
2023/05/05 04:36:58;;;;;;;22.27;17.80;;;;;;;13.48;49.90;100657.78;4892729;28;99688;-83
2023/05/05 04:39:24;;;;;;;25.17;17.20;;;;;;;13.45;50.06;100648.22;4897033;28;100897;-83
2023/05/05 04:41:50;;;;;;;20.08;17.58;;;;;;;13.55;50.09;100660.09;4883435;28;96865;-83
2023/05/05 04:44:15;;;;;;;18.70;16.70;;;;;;;13.56;50.21;100655.72;4896796;28;97041;-83
2023/05/05 04:46:41;;;;;;;20.85;18.17;;;;;;;13.68;50.35;100660.47;4882753;28;101587;-83
2023/05/05 04:49:08;;;;;;;20.52;18.33;;;;;;;13.74;50.03;100657.56;4922283;28;97959;-82
2023/05/05 04:51:33;;;;;;;25.27;17.73;;;;;;;13.84;50.18;100665.09;4893373;28;96848;-83
2023/05/05 04:53:59;;;;;;;22.60;17.45;;;;;;;13.88;49.80;100662.28;4893091;28;97013;-82
2023/05/05 04:56:25;;;;;;;19.42;17.33;;;;;;;14.01;49.96;100659.97;4892027;28;101465;-83
2023/05/05 04:58:51;;;;;;;19.33;16.85;;;;;;;14.17;50.00;100663.66;4896216;28;101106;-83
2023/05/05 05:01:17;;;;;;;19.88;16.08;;;;;;;14.41;49.59;100660.88;4876617;28;97151;-83
2023/05/05 05:03:42;;;;;;;23.65;17.45;;;;;;;14.53;49.35;100648.94;4919737;28;96815;-83
2023/05/05 05:06:08;;;;;;;23.50;17.35;;;;;;;14.77;48.95;100662.78;4894704;28;100996;-83
2023/05/05 05:08:35;;;;;;;19.50;17.50;;;;;;;14.48;49.20;100657.00;4899196;28;101766;-83
2023/05/05 05:11:01;;;;;;;21.90;16.95;;;;;;;14.48;48.99;100651.72;4901558;28;98038;-82
2023/05/05 05:13:26;;;;;;;23.08;17.77;;;;;;;14.54;49.17;100633.00;4909515;28;97268;-83
2023/05/05 05:15:52;;;;;;;22.33;17.75;;;;;;;14.84;49.09;100659.81;4918120;28;101955;-83
2023/05/05 05:18:17;;;;;;;23.48;18.02;;;;;;;14.87;48.60;100654.38;4912080;28;101780;-83
2023/05/05 05:20:43;;;;;;;24.08;17.05;;;;;;;15.06;48.77;100667.56;4935060;28;97496;-81
2023/05/05 05:23:09;;;;;;;21.75;17.63;;;;;;;15.08;48.59;100667.53;4912461;28;97174;-82
2023/05/05 05:25:41;;;;;;;25.30;17.77;;;;;;;14.84;48.67;100651.03;4930043;28;100890;-81
2023/05/05 05:28:06;;;;;;;22.67;18.48;;;;;;;15.11;48.44;100677.94;4918348;28;101165;-81
2023/05/05 05:30:33;;;;;;;20.55;17.33;;;;;;;15.22;48.04;100677.44;4907886;28;97196;-82
2023/05/05 05:33:00;;;;;;;20.73;17.98;;;;;;;15.17;48.28;100672.38;4918240;28;97043;-83
2023/05/05 05:35:26;;;;;;;25.42;17.67;;;;;;;15.29;48.21;100670.94;4903695;28;102011;-82
2023/05/05 05:37:51;;;;;;;20.08;17.05;;;;;;;15.49;48.03;100680.53;4901197;28;100951;-82
2023/05/05 05:40:18;;;;;;;19.92;17.88;;;;;;;15.62;47.62;100679.03;4917422;28;96858;-83
2023/05/05 05:42:43;;;;;;;17.88;16.05;;;;;;;15.79;47.43;100686.13;4900138;28;96936;-82
2023/05/05 05:45:09;;;;;;;32.15;17.92;;;;;;;15.73;47.28;100684.66;4896500;28;101836;-82
2023/05/05 05:47:35;;;;;;;21.65;18.00;;;;;;;15.73;46.76;100691.75;4901021;28;99700;-82
2023/05/05 05:50:01;;;;;;;20.15;17.20;;;;;;;15.61;47.30;100691.38;4917599;28;96868;-82
2023/05/05 05:52:26;;;;;;;21.73;17.50;;;;;;;15.74;47.29;100698.78;4913157;28;97290;-82
2023/05/05 05:54:52;;;;;;;18.50;16.40;;;;;;;15.73;47.39;100689.94;4933641;28;101676;-84
2023/05/05 05:57:18;;;;;;;17.98;16.08;;;;;;;15.83;47.15;100683.28;4914218;28;97820;-83
2023/05/05 05:59:44;;;;;;;21.38;17.05;;;;;;;15.90;47.13;100693.56;4898498;28;97295;-82
2023/05/05 06:02:10;;;;;;;21.95;16.80;;;;;;;16.05;46.88;100701.56;4902589;28;97255;-82
2023/05/05 06:04:36;;;;;;;20.73;17.60;;;;;;;16.17;46.84;100696.59;4913730;28;99939;-82
2023/05/05 06:07:01;;;;;;;20.52;18.52;;;;;;;16.37;46.00;100700.84;4899307;28;101235;-83
2023/05/05 06:09:27;;;;;;;20.15;17.83;;;;;;;16.51;45.61;100701.00;4917120;28;97536;-84
2023/05/05 06:11:53;;;;;;;20.33;17.23;;;;;;;16.57;45.17;100700.66;4901540;28;96954;-83
2023/05/05 06:14:19;;;;;;;21.20;18.98;;;;;;;16.62;45.11;100706.59;4900692;28;100801;-82
2023/05/05 06:16:45;;;;;;;18.55;16.73;;;;;;;16.53;45.16;100699.97;4915136;28;101563;-83
2023/05/05 06:19:15;;;;;;;21.17;18.80;;;;;;;16.92;44.90;100700.59;4901942;28;97148;-84
2023/05/05 06:21:42;;;;;;;20.83;18.20;;;;;;;17.06;45.16;100690.09;4897902;28;97165;-83
2023/05/05 06:24:07;;;;;;;23.15;18.15;;;;;;;17.43;44.44;100694.22;4920694;28;101112;-83
2023/05/05 06:26:34;;;;;;;21.00;18.77;;;;;;;17.76;43.93;100695.84;4913277;28;100713;-83
2023/05/05 06:28:59;;;;;;;19.50;17.70;;;;;;;18.06;43.38;100693.25;4933382;28;97162;-84
2023/05/05 06:31:25;;;;;;;24.30;18.58;;;;;;;17.96;43.14;100694.72;4902295;28;96935;-83
2023/05/05 06:33:50;;;;;;;19.30;17.48;;;;;;;18.47;42.67;100694.34;4905529;28;100990;-83
2023/05/05 06:36:16;;;;;;;20.63;18.38;;;;;;;18.86;41.87;100693.72;4917795;28;97507;-83
2023/05/05 06:38:41;;;;;;;20.65;18.50;;;;;;;18.69;41.73;100700.06;4903693;28;96840;-83
2023/05/05 06:41:07;;;;;;;21.02;18.80;;;;;;;19.09;41.61;100688.78;4917763;28;97148;-84
2023/05/05 06:43:32;;;;;;;20.10;17.05;;;;;;;19.58;40.78;100682.94;4909813;28;101527;-84
2023/05/05 06:46:00;;;;;;;19.65;17.50;;;;;;;19.91;40.38;100698.50;4915129;28;100168;-84
2023/05/05 06:48:25;;;;;;;18.85;16.98;;;;;;;20.33;39.67;100691.19;4915740;28;96776;-83
2023/05/05 06:50:51;;;;;;;19.42;17.52;;;;;;;20.63;38.26;100677.59;4924245;28;97410;-84
2023/05/05 06:53:16;;;;;;;19.20;17.25;;;;;;;20.91;38.36;100696.97;4928265;28;98108;-83
2023/05/05 06:55:44;;;;;;;20.67;16.48;;;;;;;20.84;37.51;100699.22;4909963;28;97879;-84
2023/05/05 06:58:10;;;;;;;18.95;16.85;;;;;;;20.77;37.13;100681.97;4895359;28;96934;-84
2023/05/05 07:00:37;;;;;;;18.42;16.50;;;;;;;20.75;37.34;100682.06;4897434;28;97052;-83
2023/05/05 07:03:03;;;;;;;17.08;15.35;;;;;;;20.23;38.24;100684.81;4900278;28;101453;-83
2023/05/05 07:05:29;;;;;;;18.15;16.52;;;;;;;20.50;38.52;100682.03;4899373;28;100147;-84
2023/05/05 07:07:55;;;;;;;18.70;16.67;;;;;;;21.43;37.27;100695.88;4932971;28;97329;-85
2023/05/05 07:10:22;;;;;;;17.05;15.55;;;;;;;22.07;36.23;100682.19;4906743;28;97036;-84
2023/05/05 07:12:48;;;;;;;17.98;16.40;;;;;;;22.40;35.35;100676.09;4900070;28;99633;-84
2023/05/05 07:15:14;;;;;;;20.83;16.30;;;;;;;22.79;34.64;100669.41;4895790;28;101310;-86
2023/05/05 07:17:40;;;;;;;17.55;16.02;;;;;;;23.17;34.46;100676.22;4899620;28;96967;-84
2023/05/05 07:20:09;;;;;;;17.55;15.80;;;;;;;23.05;34.40;100679.91;4929413;28;96920;-83
2023/05/05 07:22:35;;;;;;;17.42;15.80;;;;;;;23.34;33.55;100671.31;4902389;28;97907;-85
2023/05/05 07:25:04;;;;;;;18.00;16.40;;;;;;;24.17;32.92;100679.53;4908621;28;101342;-84
2023/05/05 07:27:31;;;;;;;18.35;16.52;;;;;;;24.39;32.10;100674.97;4916146;28;97519;-85
2023/05/05 07:29:56;;;;;;;18.15;16.33;;;;;;;24.66;31.69;100670.91;4901143;28;96905;-85
2023/05/05 07:32:22;;;;;;;17.52;15.85;;;;;;;24.99;31.42;100670.59;4918181;28;101592;-84
2023/05/05 07:34:47;;;;;;;17.63;16.02;;;;;;;25.51;30.75;100671.31;4916245;28;101343;-83
2023/05/05 07:37:13;;;;;;;17.20;15.65;;;;;;;25.87;30.37;100671.63;4915423;28;97858;-84
2023/05/05 07:39:38;;;;;;;18.55;16.85;;;;;;;26.28;29.66;100674.09;4890929;28;97282;-84
2023/05/05 07:42:05;;;;;;;16.23;14.82;;;;;;;26.22;29.88;100666.63;4916487;28;101874;-85
2023/05/05 07:44:31;;;;;;;16.98;15.43;;;;;;;26.53;29.71;100657.34;4912965;28;97918;-84
2023/05/05 07:46:56;;;;;;;16.83;15.40;;;;;;;26.67;29.50;100650.63;4932260;28;97165;-85
2023/05/05 07:49:22;;;;;;;16.45;15.05;;;;;;;27.58;28.24;100665.97;4898635;28;97117;-86
2023/05/05 07:51:49;;;;;;;17.80;16.08;;;;;;;27.80;27.57;100656.59;4916191;28;101557;-84
2023/05/05 07:54:16;;;;;;;17.58;15.98;;;;;;;28.09;27.21;100662.56;4920234;28;101916;-85
2023/05/05 07:56:41;;;;;;;17.15;15.55;;;;;;;27.96;27.17;100645.94;4901977;28;96920;-81
2023/05/05 07:59:07;;;;;;;16.55;14.95;;;;;;;28.31;26.97;100661.19;4897823;28;97055;-84
2023/05/05 08:01:32;;;;;;;16.60;15.18;;;;;;;28.14;26.50;100646.75;4911489;28;101060;-83
2023/05/05 08:03:58;;;;;;;14.73;13.57;;;;;;;28.69;26.25;100644.72;4904945;28;101319;-82
2023/05/05 08:06:24;;;;;;;16.23;14.93;;;;;;;29.09;25.23;100639.50;4916209;28;96825;-81
2023/05/05 08:08:52;;;;;;;14.90;13.52;;;;;;;28.72;25.95;100653.34;4946467;28;97165;-82
2023/05/05 08:11:18;;;;;;;15.25;13.95;;;;;;;29.28;25.21;100648.31;4908972;28;101467;-80
2023/05/05 08:13:44;;;;;;;15.80;14.27;;;;;;;28.27;25.82;100648.16;4919192;28;99863;-81
2023/05/05 08:16:10;;;;;;;15.13;13.65;;;;;;;28.42;25.43;100650.16;4918065;28;97438;-85
2023/05/05 08:18:37;;;;;;;14.52;13.43;;;;;;;28.46;26.03;100647.97;4927098;28;97048;-81
2023/05/05 08:21:07;;;;;;;14.80;13.80;;;;;;;27.76;26.34;100656.03;4923230;28;101518;-80
2023/05/05 08:23:34;;;;;;;14.82;13.50;;;;;;;28.58;26.06;100646.69;4920181;28;101581;-82
2023/05/05 08:26:01;;;;;;;14.18;13.13;;;;;;;29.53;24.94;100644.66;4912423;28;97400;-82
2023/05/05 08:28:27;;;;;;;15.05;13.73;;;;;;;29.86;24.63;100652.78;4908698;28;97574;-85
2023/05/05 08:30:52;;;;;;;14.13;12.88;;;;;;;30.67;24.34;100650.97;4978638;28;98400;-81
2023/05/05 08:33:18;;;;;;;14.32;13.20;;;;;;;30.50;23.99;100642.06;4935355;28;97348;-82
2023/05/05 08:35:43;;;;;;;13.45;12.45;;;;;;;31.13;23.37;100645.69;4945696;28;98655;-82
2023/05/05 08:38:10;;;;;;;13.88;12.77;;;;;;;30.98;23.35;100652.88;4914167;28;97146;-82
2023/05/05 08:40:40;;;;;;;13.55;12.48;;;;;;;30.91;22.89;100650.03;4927229;28;97662;-83
2023/05/05 08:43:06;;;;;;;14.32;13.13;;;;;;;30.63;23.33;100650.47;4931624;28;101530;-82
2023/05/05 08:45:31;;;;;;;14.48;13.07;;;;;;;31.19;22.71;100657.72;4928123;28;97991;-82
2023/05/05 08:48:00;;;;;;;13.73;12.45;;;;;;;31.56;22.07;100646.09;4899052;28;96967;-86
2023/05/05 08:50:27;;;;;;;16.42;12.85;;;;;;;31.44;22.81;100642.97;4908578;28;101579;-84
2023/05/05 08:53:00;;;;;;;13.98;12.70;;;;;;;31.63;22.57;100638.94;4909297;28;101568;-75
2023/05/05 08:55:27;;;;;;;13.32;12.35;;;;;;;31.34;22.65;100637.75;4928330;28;96923;-78
2023/05/05 08:57:56;;;;;;;12.88;11.85;;;;;;;30.98;21.69;100640.19;4926717;28;97174;-77
2023/05/05 09:00:23;;;;;;;13.43;12.38;;;;;;;30.83;22.47;100629.25;4921785;28;97655;-82
2023/05/05 09:02:48;;;;;;;13.13;12.02;;;;;;;31.06;22.31;100640.13;4923556;28;98357;-88
2023/05/05 09:05:14;;;;;;;12.40;11.50;;;;;;;30.90;22.21;100638.38;4910448;28;97384;-85
2023/05/05 09:07:42;;;;;;;13.07;12.05;;;;;;;30.74;22.15;100645.69;4934437;28;97082;-90
2023/05/05 09:10:09;;;;;;;13.52;12.30;;;;;;;30.22;23.25;100639.78;4924777;28;101772;-86
2023/05/05 09:12:35;;;;;;;11.55;10.82;;;;;;;31.30;21.81;100625.59;4960035;28;97371;-85
2023/05/05 09:15:03;;;;;;;12.25;11.10;;;;;;;31.51;21.42;100632.25;4907039;28;96843;-86
2023/05/05 09:17:29;;;;;;;11.50;10.60;;;;;;;31.92;20.54;100631.94;4911474;28;97102;-86
2023/05/05 09:20:11;;;;;;;12.27;11.18;;;;;;;31.35;21.24;100636.75;4922360;28;101694;-84
2023/05/05 09:22:43;;;;;;;12.00;11.05;;;;;;;32.18;20.13;100628.81;4921245;28;101391;-84
2023/05/05 09:25:10;;;;;;;12.48;11.45;;;;;;;31.90;20.44;100623.97;4929901;28;97249;-84
2023/05/05 09:27:41;;;;;;;12.30;11.27;;;;;;;31.15;21.12;100612.97;4957328;28;98048;-84
2023/05/05 09:30:11;;;;;;;12.30;11.20;;;;;;;30.60;21.34;100623.75;4911086;28;101277;-84
2023/05/05 09:32:45;;;;;;;12.52;11.52;;;;;;;30.65;21.52;100606.94;4947049;28;98051;-85
2023/05/05 09:35:11;;;;;;;11.52;10.48;;;;;;;30.14;21.74;100623.50;4938656;28;96828;-84
2023/05/05 09:37:37;;;;;;;11.25;10.45;;;;;;;29.47;21.85;100622.84;4959762;28;96886;-86
2023/05/05 09:40:04;;;;;;;12.00;10.77;;;;;;;27.86;23.88;100621.75;4899593;28;101009;-85
2023/05/05 09:42:30;;;;;;;11.73;10.82;;;;;;;28.24;22.85;100606.16;4913537;28;101183;-83
2023/05/05 09:44:56;;;;;;;11.40;10.60;;;;;;;28.65;22.40;100612.66;4930926;28;97431;-84
2023/05/05 09:47:32;;;;;;;11.80;10.90;;;;;;;28.61;21.61;100621.22;4920823;28;97010;-90
2023/05/05 09:49:58;;;;;;;12.77;11.60;;;;;;;28.14;22.42;100622.47;4928976;28;99203;-87
2023/05/05 09:52:24;;;;;;;11.93;11.02;;;;;;;26.91;23.70;100622.28;4923108;28;98144;-89
2023/05/05 09:54:57;;;;;;;11.10;10.20;;;;;;;26.42;24.16;100627.88;4935783;28;97224;-90
2023/05/05 09:57:26;;;;;;;11.13;10.32;;;;;;;25.83;24.41;100613.75;4902882;28;97265;-90
2023/05/05 09:59:57;;;;;;;10.57;9.77;;;;;;;25.72;25.43;100638.06;4952199;28;98136;-88
2023/05/05 10:02:41;;;;;;;10.82;9.93;;;;;;;25.79;25.02;100627.56;4903339;28;101423;-81
2023/05/05 10:05:11;;;;;;;10.73;9.80;;;;;;;25.64;25.10;100627.16;4948831;28;97637;-83
2023/05/05 10:07:38;;;;;;;11.73;10.65;;;;;;;25.35;25.07;100608.34;4918673;28;97285;-78
2023/05/05 10:10:05;;;;;;;10.90;10.10;;;;;;;25.59;25.40;100618.69;4924190;28;98073;-79
2023/05/05 10:12:36;;;;;;;11.27;10.38;;;;;;;25.56;24.92;100616.28;4966436;28;98099;-78
2023/05/05 10:15:04;;;;;;;11.43;10.35;;;;;;;25.34;24.71;100629.00;4935633;28;97783;-77
2023/05/05 10:17:31;;;;;;;12.85;10.70;;;;;;;24.87;25.74;100603.72;4932379;28;97552;-80
2023/05/05 10:19:59;;;;;;;10.95;10.15;;;;;;;24.26;26.01;100623.34;4917154;28;101495;-79
2023/05/05 10:22:25;;;;;;;10.38;9.57;;;;;;;24.27;26.69;100627.75;4922634;28;101337;-82
2023/05/05 10:25:01;;;;;;;11.77;10.88;;;;;;;24.11;26.43;100609.44;4900722;28;97792;-80
2023/05/05 10:27:28;;;;;;;11.10;10.15;;;;;;;24.21;26.65;100622.94;4911016;28;97143;-82
2023/05/05 10:30:05;;;;;;;11.80;10.68;;;;;;;23.97;26.92;100602.63;4932663;28;97581;-76
2023/05/05 10:32:44;;;;;;;11.57;10.18;;;;;;;24.01;27.03;100608.56;4940967;28;98391;-78
2023/05/05 10:35:10;;;;;;;11.43;10.52;;;;;;;24.04;27.11;100606.47;4946927;28;97970;-77
2023/05/05 10:37:36;;;;;;;11.57;10.63;;;;;;;23.51;27.80;100606.50;4951544;28;96976;-77
2023/05/05 10:40:03;;;;;;;12.02;10.80;;;;;;;23.57;27.90;100610.47;4919093;28;99263;-80
2023/05/05 10:42:29;;;;;;;11.30;10.50;;;;;;;23.04;27.72;100603.25;4949549;28;97369;-78
2023/05/05 10:44:54;;;;;;;11.80;10.43;;;;;;;22.99;27.97;100600.94;4944939;28;97145;-77
2023/05/05 10:47:21;;;;;;;11.13;10.30;;;;;;;22.57;28.52;100607.88;4932450;28;98071;-75
2023/05/05 10:50:10;;;;;;;11.27;10.25;;;;;;;22.74;28.77;100596.69;4931269;28;101281;-77
2023/05/05 10:52:50;;;;;;;12.98;10.27;;;;;;;22.76;28.40;100607.28;4914181;28;101258;-80
2023/05/05 10:55:19;;;;;;;11.35;10.38;;;;;;;22.26;28.84;100593.44;4942930;28;97189;-78
2023/05/05 10:57:45;;;;;;;10.20;9.40;;;;;;;22.10;28.80;100613.28;4937614;28;98634;-81
2023/05/05 11:00:39;;;;;;;11.05;9.50;;;;;;;22.49;28.78;100605.84;4910428;28;101758;-76
2023/05/05 11:03:16;;;;;;;6.20;4.00;;;;;;;22.50;29.13;100602.19;4936179;28;101396;-83
2023/05/05 11:06:06;;;;;;;9.90;4.93;;;;;;;22.56;29.11;100611.53;4946758;28;97207;-85
2023/05/05 11:08:33;;;;;;;6.57;4.05;;;;;;;22.57;28.69;100575.78;4906753;28;97431;-87
2023/05/05 11:10:59;;;;;;;6.32;4.20;;;;;;;22.66;27.73;100587.56;4904551;28;98213;-86